Time;durP1;ratioP1;P1;durP2;ratioP2;P2;SDS_P1;SDS_P2;PMS_P1;PMS_P2;Temp;Humidity;BMP_temperature;BMP_pressure;BME280_temperature;BME280_humidity;BME280_pressure;Samples;Min_cycle;Max_cycle;Signal;HPM_P1;HPM_P2
2022/04/03 00:01:41;;;;;;;5.05;2.83;;;1.90;99.90;;;;;;5032917;28;20021;-55
2022/04/03 00:04:07;;;;;;;5.60;2.65;;;1.90;99.90;;;;;;5033169;28;20069;-55
2022/04/03 00:06:33;;;;;;;6.53;3.10;;;1.90;99.90;;;;;;5032510;28;20041;-55
2022/04/03 00:08:58;;;;;;;6.47;3.08;;;1.90;99.90;;;;;;5033459;28;20037;-55
2022/04/03 00:11:25;;;;;;;5.47;2.60;;;1.90;99.90;;;;;;5031964;28;20514;-54
2022/04/03 00:13:50;;;;;;;3.78;2.72;;;1.70;99.90;;;;;;5033466;28;20371;-55
2022/04/03 00:16:16;;;;;;;4.47;3.00;;;1.70;99.90;;;;;;5048584;28;20026;-55
2022/04/03 00:18:42;;;;;;;5.60;3.08;;;1.70;99.90;;;;;;5033566;28;20084;-55
2022/04/03 00:21:08;;;;;;;9.65;3.10;;;1.70;99.90;;;;;;5032776;28;20018;-54
2022/04/03 00:23:33;;;;;;;5.13;2.75;;;1.70;99.90;;;;;;5033069;28;20490;-55
2022/04/03 00:25:59;;;;;;;5.60;3.30;;;1.70;99.90;;;;;;5032216;28;20035;-55
2022/04/03 00:28:28;;;;;;;4.47;2.92;;;1.60;99.90;;;;;;5033484;28;20032;-54
2022/04/03 00:30:55;;;;;;;6.55;3.25;;;1.70;99.90;;;;;;5032764;28;20108;-55
2022/04/03 00:33:20;;;;;;;6.00;3.22;;;1.70;99.90;;;;;;5032880;28;20032;-55
2022/04/03 00:35:46;;;;;;;10.98;3.38;;;1.60;99.90;;;;;;5032605;28;20029;-55
2022/04/03 00:38:12;;;;;;;7.32;3.00;;;1.70;99.90;;;;;;5032373;28;20021;-55
2022/04/03 00:40:38;;;;;;;7.13;3.22;;;1.70;99.90;;;;;;5032654;28;20025;-55
2022/04/03 00:43:03;;;;;;;4.97;3.00;;;1.70;99.90;;;;;;5032948;28;20163;-55
2022/04/03 00:45:29;;;;;;;7.30;2.97;;;1.70;99.90;;;;;;5033190;28;20102;-55
2022/04/03 00:47:56;;;;;;;6.93;3.03;;;1.60;99.90;;;;;;5032699;28;20067;-55
2022/04/03 00:50:22;;;;;;;7.40;3.22;;;1.60;99.90;;;;;;5032829;28;20112;-55
2022/04/03 00:52:48;;;;;;;7.10;2.92;;;1.60;99.90;;;;;;5032626;28;20037;-55
2022/04/03 00:55:14;;;;;;;10.13;4.00;;;1.60;99.90;;;;;;5031860;28;20025;-55
2022/04/03 00:57:43;;;;;;;6.95;3.65;;;1.60;99.90;;;;;;5031563;28;20030;-55
2022/04/03 01:00:12;;;;;;;7.65;3.53;;;1.60;99.90;;;;;;5031741;28;20537;-55
2022/04/03 01:02:41;;;;;;;8.68;4.22;;;1.50;99.90;;;;;;5031881;28;20242;-55
2022/04/03 01:05:07;;;;;;;10.93;3.75;;;1.50;99.90;;;;;;5032223;28;20029;-55
2022/04/03 01:07:34;;;;;;;8.48;3.97;;;1.50;99.90;;;;;;5032172;28;20395;-55
2022/04/03 01:10:00;;;;;;;7.22;4.07;;;1.40;99.90;;;;;;5032598;28;20383;-55
2022/04/03 01:12:26;;;;;;;6.80;3.58;;;1.40;99.90;;;;;;5032225;28;20108;-55
2022/04/03 01:14:51;;;;;;;7.22;3.70;;;1.40;99.90;;;;;;5031638;28;20455;-55
2022/04/03 01:17:17;;;;;;;8.35;3.58;;;1.30;99.90;;;;;;5031092;28;20025;-55
2022/04/03 01:19:43;;;;;;;5.47;3.60;;;1.30;99.90;;;;;;5031142;28;20057;-55
2022/04/03 01:22:09;;;;;;;5.55;3.58;;;1.30;99.90;;;;;;5031264;28;20029;-55
2022/04/03 01:24:35;;;;;;;7.88;3.88;;;1.30;99.90;;;;;;5030880;28;20510;-55
2022/04/03 01:27:01;;;;;;;5.63;3.33;;;1.20;99.90;;;;;;5031215;28;20057;-55
2022/04/03 01:29:27;;;;;;;5.32;3.70;;;1.20;99.90;;;;;;5031775;28;20391;-55
2022/04/03 01:31:53;;;;;;;7.35;3.60;;;1.20;99.90;;;;;;5031849;28;20029;-55
2022/04/03 01:34:20;;;;;;;5.47;3.30;;;1.20;99.90;;;;;;5030640;28;20033;-55
2022/04/03 01:36:47;;;;;;;7.63;3.72;;;1.20;99.90;;;;;;5030904;28;20399;-55
2022/04/03 01:39:13;;;;;;;6.80;3.60;;;1.10;99.90;;;;;;5030757;28;20021;-54
2022/04/03 01:41:43;;;;;;;8.38;3.75;;;1.10;99.90;;;;;;5031304;28;20079;-55
2022/04/03 01:44:13;;;;;;;8.75;3.80;;;1.20;99.90;;;;;;5031839;28;20029;-55
2022/04/03 01:46:39;;;;;;;9.02;3.50;;;1.20;99.90;;;;;;5031530;28;20080;-55
2022/04/03 01:49:06;;;;;;;7.70;3.80;;;1.10;99.90;;;;;;5030662;28;20046;-54
2022/04/03 01:51:32;;;;;;;9.30;4.13;;;1.10;99.90;;;;;;5031376;28;20402;-55
2022/04/03 01:53:59;;;;;;;9.10;4.35;;;1.10;99.90;;;;;;5030703;28;20033;-55
2022/04/03 01:56:25;;;;;;;7.45;4.15;;;1.00;99.90;;;;;;5030282;28;20061;-55
2022/04/03 01:58:50;;;;;;;11.13;4.40;;;1.00;99.90;;;;;;5034050;28;20029;-55
2022/04/03 02:01:16;;;;;;;8.70;4.30;;;0.90;99.90;;;;;;5034961;28;20479;-55
2022/04/03 02:03:42;;;;;;;6.93;3.53;;;0.90;99.90;;;;;;5031908;28;20036;-55
2022/04/03 02:06:08;;;;;;;8.75;3.63;;;0.90;99.90;;;;;;5030665;28;20100;-55
2022/04/03 02:08:34;;;;;;;8.77;3.40;;;0.90;99.90;;;;;;5030936;28;20055;-55
2022/04/03 02:11:00;;;;;;;6.07;3.67;;;0.90;99.90;;;;;;5030735;28;20033;-55
2022/04/03 02:13:25;;;;;;;6.88;3.55;;;1.00;99.90;;;;;;5030504;28;20025;-55
2022/04/03 02:15:51;;;;;;;8.68;3.53;;;0.90;99.90;;;;;;5030401;28;20037;-55
2022/04/03 02:18:17;;;;;;;9.95;3.85;;;0.80;99.90;;;;;;5030941;28;20502;-54
2022/04/03 02:20:43;;;;;;;5.05;3.10;;;0.80;99.90;;;;;;5030714;28;20492;-54
2022/04/03 02:23:10;;;;;;;5.40;3.13;;;0.80;99.90;;;;;;5031061;28;20021;-55
2022/04/03 02:25:36;;;;;;;7.65;3.58;;;0.80;99.90;;;;;;5030812;28;20368;-55
2022/04/03 02:28:04;;;;;;;6.85;3.58;;;0.80;99.90;;;;;;5035144;28;20029;-55
2022/04/03 02:30:30;;;;;;;5.03;3.58;;;0.80;99.90;;;;;;5035502;28;20032;-55
2022/04/03 02:32:56;;;;;;;7.60;3.53;;;0.80;99.90;;;;;;5035098;28;20114;-55
2022/04/03 02:35:22;;;;;;;9.57;3.35;;;0.70;99.90;;;;;;5035152;28;20112;-55
2022/04/03 02:37:48;;;;;;;7.20;3.30;;;0.70;99.90;;;;;;5034326;28;20045;-55
2022/04/03 02:40:16;;;;;;;5.88;2.88;;;0.70;99.90;;;;;;5034730;28;20056;-55
2022/04/03 02:42:42;;;;;;;6.43;3.03;;;0.70;99.90;;;;;;5034100;28;20022;-55
2022/04/03 02:45:12;;;;;;;7.25;3.13;;;0.60;99.90;;;;;;5034542;28;20472;-56
2022/04/03 02:47:38;;;;;;;6.45;3.50;;;0.60;99.90;;;;;;5033863;28;20510;-55
2022/04/03 02:50:05;;;;;;;7.82;3.08;;;0.60;99.90;;;;;;5033847;28;20116;-54
2022/04/03 02:52:30;;;;;;;6.85;3.42;;;0.70;99.90;;;;;;5033679;28;20053;-55
2022/04/03 02:54:57;;;;;;;4.30;2.90;;;0.60;99.90;;;;;;5034003;28;20030;-55
2022/04/03 02:57:23;;;;;;;5.32;2.70;;;0.60;99.90;;;;;;5033705;28;20695;-55
2022/04/03 02:59:49;;;;;;;4.75;3.00;;;0.60;99.90;;;;;;5034024;28;20022;-55
2022/04/03 03:02:14;;;;;;;4.63;3.03;;;0.70;99.90;;;;;;5034003;28;20091;-59
2022/04/03 03:04:40;;;;;;;6.07;2.70;;;0.60;99.90;;;;;;5033830;28;20423;-54
2022/04/03 03:07:07;;;;;;;8.48;3.22;;;0.70;99.90;;;;;;5034492;28;20444;-54
2022/04/03 03:09:34;;;;;;;6.10;3.10;;;0.80;99.90;;;;;;5033822;28;20029;-55
2022/04/03 03:12:00;;;;;;;6.22;3.08;;;0.80;99.90;;;;;;5034503;28;20445;-55
2022/04/03 03:14:27;;;;;;;8.25;2.95;;;0.80;99.90;;;;;;5033815;28;20056;-55
2022/04/03 03:16:53;;;;;;;5.28;2.90;;;0.90;99.90;;;;;;5034126;28;20098;-55
2022/04/03 03:19:18;;;;;;;10.60;3.20;;;1.00;99.90;;;;;;5033222;28;20026;-55
2022/04/03 03:21:44;;;;;;;6.65;2.63;;;1.00;99.90;;;;;;5034184;28;20116;-55
2022/04/03 03:24:10;;;;;;;8.18;2.92;;;1.20;99.90;;;;;;5034136;28;20017;-55
2022/04/03 03:26:36;;;;;;;5.85;2.60;;;1.30;99.90;;;;;;5033099;28;20036;-55
2022/04/03 03:29:03;;;;;;;6.95;3.03;;;1.40;99.90;;;;;;5033210;28;20083;-55
2022/04/03 03:31:28;;;;;;;5.47;2.45;;;1.50;99.90;;;;;;5033994;28;20057;-54
2022/04/03 03:33:54;;;;;;;5.32;2.45;;;1.50;99.90;;;;;;5033169;28;20399;-55
2022/04/03 03:36:20;;;;;;;4.80;2.85;;;1.40;99.90;;;;;;5033864;28;20037;-55
2022/04/03 03:38:45;;;;;;;5.07;2.67;;;1.40;99.90;;;;;;5032278;28;20039;-55
2022/04/03 03:41:11;;;;;;;3.78;2.72;;;1.40;99.90;;;;;;5033059;28;20028;-55
2022/04/03 03:43:37;;;;;;;5.03;2.60;;;1.40;99.90;;;;;;5034272;28;20068;-55
2022/04/03 03:46:03;;;;;;;5.97;2.80;;;1.40;99.90;;;;;;5034169;28;20029;-55
2022/04/03 03:48:29;;;;;;;12.98;3.25;;;1.50;99.90;;;;;;5032570;28;20495;-55
2022/04/03 03:50:55;;;;;;;6.65;2.67;;;1.50;99.90;;;;;;5033467;28;20021;-55
2022/04/03 03:53:21;;;;;;;6.20;2.83;;;1.50;99.90;;;;;;5034441;28;20033;-55
2022/04/03 03:55:48;;;;;;;6.25;3.05;;;1.60;99.90;;;;;;5032957;28;20017;-55
2022/04/03 03:58:13;;;;;;;7.90;3.10;;;1.60;99.90;;;;;;5033431;28;20029;-58
2022/04/03 04:00:39;;;;;;;9.57;3.05;;;1.50;99.90;;;;;;5031586;28;20021;-55
2022/04/03 04:03:05;;;;;;;4.50;2.90;;;1.50;99.90;;;;;;5032533;28;20036;-55
2022/04/03 04:05:30;;;;;;;4.80;3.00;;;1.60;99.90;;;;;;5032805;28;20029;-55
2022/04/03 04:07:56;;;;;;;4.80;3.17;;;1.60;99.90;;;;;;5032818;28;20375;-55
2022/04/03 04:10:22;;;;;;;4.72;3.08;;;1.70;99.90;;;;;;5032804;28;20026;-55
2022/04/03 04:12:48;;;;;;;5.00;2.75;;;1.80;99.90;;;;;;5033619;28;20025;-55
2022/04/03 04:15:14;;;;;;;6.55;3.03;;;1.80;99.90;;;;;;5033180;28;20344;-55
2022/04/03 04:17:45;;;;;;;5.65;2.97;;;1.90;99.90;;;;;;5033330;28;20025;-55
2022/04/03 04:20:13;;;;;;;5.93;3.08;;;1.90;99.90;;;;;;5032378;28;20325;-55
2022/04/03 04:22:40;;;;;;;4.40;2.55;;;1.90;99.90;;;;;;5034875;28;20025;-55
2022/04/03 04:25:06;;;;;;;8.13;3.25;;;1.90;99.90;;;;;;5035418;28;20087;-55
2022/04/03 04:27:32;;;;;;;6.35;3.22;;;2.00;99.90;;;;;;5034280;28;20468;-55
2022/04/03 04:29:58;;;;;;;5.82;2.85;;;2.00;99.90;;;;;;5033387;28;20037;-55
2022/04/03 04:32:24;;;;;;;8.35;3.05;;;2.10;99.90;;;;;;5031791;28;20037;-55
2022/04/03 04:34:50;;;;;;;6.07;3.08;;;2.10;99.90;;;;;;5031840;28;20033;-55
2022/04/03 04:37:17;;;;;;;10.63;3.30;;;2.00;99.90;;;;;;5032205;28;20440;-56
2022/04/03 04:39:43;;;;;;;9.60;3.40;;;1.90;99.90;;;;;;5031811;28;20032;-55
2022/04/03 04:42:09;;;;;;;4.22;3.05;;;1.80;99.90;;;;;;5031596;28;20071;-55
2022/04/03 04:44:34;;;;;;;6.82;3.42;;;1.80;99.90;;;;;;5032231;28;20495;-55
2022/04/03 04:47:01;;;;;;;5.38;3.50;;;1.80;99.90;;;;;;5032558;28;20033;-55
2022/04/03 04:49:27;;;;;;;6.38;3.30;;;1.70;99.90;;;;;;5031197;28;20049;-56
2022/04/03 04:51:52;;;;;;;5.72;3.60;;;1.60;99.90;;;;;;5033079;28;20029;-55
2022/04/03 04:54:18;;;;;;;5.93;3.65;;;1.50;99.90;;;;;;5032795;28;20033;-55
2022/04/03 04:56:44;;;;;;;6.47;4.05;;;1.50;99.90;;;;;;5032275;28;20033;-55
2022/04/03 04:59:10;;;;;;;5.38;3.47;;;1.40;99.90;;;;;;5031844;28;20029;-56
2022/04/03 05:01:36;;;;;;;7.00;3.40;;;1.40;99.90;;;;;;5031231;28;20384;-55
2022/04/03 05:04:02;;;;;;;11.35;3.47;;;1.40;99.90;;;;;;5032296;28;20047;-54
2022/04/03 05:06:28;;;;;;;4.05;3.15;;;1.40;99.90;;;;;;5032428;28;20267;-55
2022/04/03 05:08:54;;;;;;;9.85;3.35;;;1.40;99.90;;;;;;5032563;28;20482;-54
2022/04/03 05:11:21;;;;;;;5.75;3.60;;;1.40;99.90;;;;;;5032023;28;20034;-55
2022/04/03 05:13:47;;;;;;;7.28;3.38;;;1.40;99.90;;;;;;5030902;28;20092;-55
2022/04/03 05:16:13;;;;;;;7.40;3.42;;;1.30;99.90;;;;;;5031216;28;20030;-55
2022/04/03 05:18:39;;;;;;;6.65;3.38;;;1.20;99.90;;;;;;5031120;28;20581;-55
2022/04/03 05:21:07;;;;;;;6.45;3.65;;;1.20;99.90;;;;;;5031104;28;20017;-55
2022/04/03 05:23:33;;;;;;;9.98;3.50;;;1.20;99.90;;;;;;5030668;28;20386;-55
2022/04/03 05:25:58;;;;;;;10.52;3.97;;;1.20;99.90;;;;;;5030804;28;20030;-55
2022/04/03 05:28:24;;;;;;;5.22;3.78;;;1.20;99.90;;;;;;5031044;28;20279;-55
2022/04/03 05:30:50;;;;;;;8.07;4.05;;;1.10;99.90;;;;;;5031049;28;20048;-55
2022/04/03 05:33:16;;;;;;;8.10;4.28;;;1.00;99.90;;;;;;5031085;28;20029;-55
2022/04/03 05:35:42;;;;;;;11.02;4.53;;;0.90;99.90;;;;;;5030590;28;20034;-55
2022/04/03 05:38:08;;;;;;;9.63;5.18;;;0.70;99.90;;;;;;5031118;28;20124;-54
2022/04/03 05:40:34;;;;;;;16.27;8.45;;;0.40;99.90;;;;;;5031116;28;20108;-56
2022/04/03 05:43:00;;;;;;;16.33;7.97;;;0.40;99.90;;;;;;5030636;28;20487;-55
2022/04/03 05:45:27;;;;;;;14.13;6.38;;;0.40;99.90;;;;;;5031039;28;20040;-55
2022/04/03 05:47:53;;;;;;;11.20;6.60;;;0.50;99.90;;;;;;5030438;28;20036;-55
2022/04/03 05:50:19;;;;;;;10.00;6.28;;;0.60;99.90;;;;;;5030945;28;20033;-55
2022/04/03 05:52:47;;;;;;;13.27;6.05;;;0.70;99.90;;;;;;5031361;28;20028;-55
2022/04/03 05:55:18;;;;;;;10.52;6.15;;;0.70;99.90;;;;;;5031364;28;20036;-55
2022/04/03 05:57:44;;;;;;;12.23;6.18;;;0.70;99.90;;;;;;5030549;28;20037;-55
2022/04/03 06:00:12;;;;;;;11.15;6.13;;;0.70;99.90;;;;;;5030816;28;20022;-55
2022/04/03 06:02:59;;;;;;;10.85;6.38;;;0.80;99.90;;;;;;5030167;28;20398;-55
2022/04/03 06:05:27;;;;;;;12.13;6.18;;;0.80;99.90;;;;;;5031063;28;20122;-55
2022/04/03 06:07:53;;;;;;;13.23;7.30;;;0.80;99.90;;;;;;5030521;28;20101;-55
2022/04/03 06:10:22;;;;;;;10.20;6.43;;;0.80;99.90;;;;;;5030890;28;20057;-55
2022/04/03 06:13:07;;;;;;;9.48;6.45;;;0.80;99.90;;;;;;5030424;28;20022;-55
2022/04/03 06:15:38;;;;;;;13.27;6.65;;;0.80;99.90;;;;;;5030437;28;20540;-54
2022/04/03 06:18:07;;;;;;;17.42;7.43;;;0.90;99.90;;;;;;5030562;28;20080;-55
2022/04/03 06:20:33;;;;;;;16.45;7.43;;;0.90;99.90;;;;;;5030658;28;20025;-55
2022/04/03 06:22:59;;;;;;;11.15;6.82;;;1.00;99.90;;;;;;5030729;28;20026;-55
2022/04/03 06:25:25;;;;;;;10.45;6.28;;;1.10;99.90;;;;;;5029916;28;20026;-55
2022/04/03 06:27:54;;;;;;;9.85;5.20;;;1.20;99.90;;;;;;5029980;28;20561;-55
2022/04/03 06:30:21;;;;;;;7.88;5.13;;;1.30;99.90;;;;;;5031136;28;20106;-55
2022/04/03 06:32:47;;;;;;;8.32;5.00;;;1.30;99.90;;;;;;5030651;28;20113;-55
2022/04/03 06:35:13;;;;;;;6.80;5.00;;;1.40;99.90;;;;;;5030615;28;20092;-55
2022/04/03 06:37:40;;;;;;;9.80;5.10;;;1.50;99.90;;;;;;5029609;28;20406;-55
2022/04/03 06:40:07;;;;;;;11.38;5.47;;;1.60;99.90;;;;;;5030645;28;20022;-55
2022/04/03 06:42:33;;;;;;;11.25;5.20;;;1.80;99.90;;;;;;5030064;28;20047;-55
2022/04/03 06:45:00;;;;;;;13.68;5.50;;;1.90;99.90;;;;;;5030208;28;20041;-55
2022/04/03 06:47:26;;;;;;;12.80;5.45;;;2.10;99.90;;;;;;5030171;28;20505;-55
2022/04/03 06:49:52;;;;;;;10.57;5.15;;;2.40;99.90;;;;;;5030268;28;20045;-55
2022/04/03 06:52:17;;;;;;;8.43;5.28;;;2.50;99.90;;;;;;5030248;28;20605;-55
2022/04/03 06:54:44;;;;;;;11.85;5.63;;;2.70;99.90;;;;;;5030455;28;20034;-55
2022/04/03 06:57:14;;;;;;;11.52;5.90;;;2.80;99.90;;;;;;5031019;28;20033;-55
2022/04/03 06:59:43;;;;;;;16.08;8.07;;;3.00;99.90;;;;;;5030734;28;20022;-54
2022/04/03 07:02:09;;;;;;;13.45;7.63;;;3.10;99.90;;;;;;5029991;28;20087;-55
2022/04/03 07:04:38;;;;;;;11.48;7.53;;;3.30;99.90;;;;;;5030163;28;20435;-55
2022/04/03 07:07:04;;;;;;;14.10;6.82;;;3.40;99.90;;;;;;5029600;28;20310;-55
2022/04/03 07:09:30;;;;;;;14.45;6.70;;;3.50;99.90;;;;;;5030425;28;20025;-55
2022/04/03 07:11:55;;;;;;;11.23;6.15;;;3.80;99.90;;;;;;5029931;28;20387;-54
2022/04/03 07:14:22;;;;;;;14.02;6.03;;;4.00;99.90;;;;;;5034013;28;20112;-55
2022/04/03 07:16:48;;;;;;;9.40;5.88;;;4.30;99.90;;;;;;5033508;28;20025;-55
2022/04/03 07:19:13;;;;;;;10.52;6.00;;;4.50;99.90;;;;;;5033984;28;20021;-55
2022/04/03 07:21:39;;;;;;;7.85;5.50;;;4.60;99.90;;;;;;5044863;28;20048;-55
2022/04/03 07:24:06;;;;;;;12.40;5.47;;;4.60;99.90;;;;;;5068534;28;20060;-55
2022/04/03 07:26:32;;;;;;;16.58;7.65;;;4.50;99.90;;;;;;5052576;28;20025;-56
2022/04/03 07:28:58;;;;;;;15.35;6.90;;;4.50;99.90;;;;;;5053133;28;20032;-55
2022/04/03 07:31:25;;;;;;;10.40;6.30;;;4.50;99.90;;;;;;5053605;28;20559;-55
2022/04/03 07:33:50;;;;;;;12.02;5.15;;;4.70;99.90;;;;;;5067904;28;20025;-55
2022/04/03 07:36:16;;;;;;;11.57;6.35;;;5.10;99.90;;;;;;5052734;28;20332;-55
2022/04/03 07:38:42;;;;;;;7.13;3.72;;;5.20;99.90;;;;;;5052227;28;20025;-55
2022/04/03 07:41:08;;;;;;;7.30;3.30;;;5.20;99.90;;;;;;5065644;28;20020;-55
2022/04/03 07:43:33;;;;;;;7.88;3.03;;;5.70;99.90;;;;;;5056605;28;20055;-56
2022/04/03 07:45:59;;;;;;;5.63;2.80;;;7.20;99.90;;;;;;5054495;28;20021;-57
2022/04/03 07:48:25;;;;;;;5.93;2.50;;;8.90;99.90;;;;;;5052439;28;20059;-57
2022/04/03 07:50:51;;;;;;;7.07;2.90;;;10.60;96.10;;;;;;5051936;28;20044;-57
2022/04/03 07:53:17;;;;;;;3.58;2.00;;;11.90;91.20;;;;;;5052116;28;20116;-57
2022/04/03 07:55:43;;;;;;;6.20;2.05;;;12.00;87.30;;;;;;5051942;28;20112;-58
2022/04/03 07:58:09;;;;;;;4.18;2.10;;;12.70;82.90;;;;;;5052159;28;20033;-59
2022/04/03 08:00:34;;;;;;;3.53;1.60;;;13.90;78.80;;;;;;5052281;28;20405;-59
2022/04/03 08:03:00;;;;;;;4.22;2.00;;;14.20;76.10;;;;;;5052091;28;20033;-59
2022/04/03 08:05:26;;;;;;;2.55;2.03;;;14.70;73.30;;;;;;5052033;28;20029;-60
2022/04/03 08:07:51;;;;;;;4.07;1.75;;;14.90;72.70;;;;;;5052039;28;20052;-59
2022/04/03 08:10:20;;;;;;;6.20;2.38;;;15.10;69.40;;;;;;5052062;28;20071;-59
2022/04/03 08:12:48;;;;;;;3.13;2.17;;;15.00;69.60;;;;;;5052410;28;20035;-59
2022/04/03 08:15:15;;;;;;;5.57;2.90;;;15.20;69.10;;;;;;5052073;28;20029;-59
2022/04/03 08:17:42;;;;;;;6.57;3.60;;;14.50;72.00;;;;;;5051086;28;20518;-59
2022/04/03 08:20:10;;;;;;;6.05;3.00;;;14.70;73.50;;;;;;5051754;28;20348;-61
2022/04/03 08:22:37;;;;;;;8.38;4.13;;;14.90;72.60;;;;;;5051994;28;20029;-60
2022/04/03 08:25:03;;;;;;;6.28;2.78;;;15.10;71.90;;;;;;5051291;28;20028;-59
2022/04/03 08:27:45;;;;;;;4.60;2.60;;;15.30;70.50;;;;;;5052040;28;20250;-59
2022/04/03 08:30:13;;;;;;;3.15;2.47;;;15.00;71.30;;;;;;5051335;28;20029;-57
2022/04/03 08:32:39;;;;;;;3.05;2.50;;;14.00;74.10;;;;;;5051210;28;20048;-57
2022/04/03 08:35:06;;;;;;;3.58;2.65;;;13.40;74.90;;;;;;5051814;28;20078;-57
2022/04/03 08:37:31;;;;;;;3.97;2.60;;;13.60;75.90;;;;;;5051297;28;20489;-57
2022/04/03 08:39:57;;;;;;;5.75;2.75;;;14.10;75.30;;;;;;5051720;28;20028;-57
2022/04/03 08:42:23;;;;;;;4.47;2.90;;;14.30;75.30;;;;;;5051594;28;20082;-57
2022/04/03 08:44:48;;;;;;;5.78;2.78;;;14.30;74.40;;;;;;5051236;28;20028;-57
2022/04/03 08:47:17;;;;;;;3.13;2.20;;;14.00;76.20;;;;;;5051084;28;20525;-57
2022/04/03 08:49:46;;;;;;;6.75;2.58;;;14.80;73.00;;;;;;5050969;28;20056;-57
2022/04/03 08:52:13;;;;;;;3.67;2.40;;;14.30;74.10;;;;;;5051329;28;20053;-57
2022/04/03 08:54:40;;;;;;;2.97;2.10;;;14.50;74.40;;;;;;5051120;28;20040;-60
2022/04/03 08:57:07;;;;;;;3.22;2.35;;;14.90;72.40;;;;;;5051022;28;20124;-59
2022/04/03 08:59:33;;;;;;;4.00;1.90;;;15.50;69.70;;;;;;5050800;28;20021;-59
2022/04/03 09:01:59;;;;;;;4.15;2.67;;;15.20;68.90;;;;;;5050820;28;20036;-57
2022/04/03 09:04:27;;;;;;;3.80;2.42;;;14.70;71.20;;;;;;5050635;28;20385;-57
2022/04/03 09:06:59;;;;;;;3.13;1.75;;;15.00;70.90;;;;;;5050557;28;20061;-58
2022/04/03 09:09:27;;;;;;;4.32;2.63;;;15.10;69.80;;;;;;5050896;28;20075;-60
2022/04/03 09:12:13;;;;;;;3.25;2.00;;;15.60;69.50;;;;;;5049370;28;20021;-60
2022/04/03 09:14:53;;;;;;;3.67;2.20;;;15.40;70.50;;;;;;5050789;28;20059;-57
2022/04/03 09:17:32;;;;;;;2.72;1.95;;;15.10;70.80;;;;;;5049958;28;20104;-57
2022/04/03 09:20:05;;;;;;;4.35;2.70;;;14.90;72.20;;;;;;5049507;28;20032;-57
2022/04/03 09:22:35;;;;;;;6.35;2.38;;;14.80;69.20;;;;;;5050539;28;20025;-57
2022/04/03 09:25:05;;;;;;;4.47;2.00;;;14.80;69.30;;;;;;5049704;28;20032;-57
2022/04/03 09:27:44;;;;;;;3.45;1.63;;;15.10;66.70;;;;;;5051289;28;20497;-57
2022/04/03 09:30:10;;;;;;;2.40;1.40;;;15.00;66.30;;;;;;5050861;28;20032;-57
2022/04/03 09:32:46;;;;;;;2.42;1.55;;;14.10;65.20;;;;;;5050286;28;20510;-57
2022/04/03 09:35:12;;;;;;;2.13;1.52;;;14.60;65.60;;;;;;5050155;28;20036;-59
2022/04/03 09:37:38;;;;;;;3.65;2.08;;;15.00;64.60;;;;;;5050117;28;20044;-57
2022/04/03 09:40:03;;;;;;;5.43;1.95;;;14.70;66.20;;;;;;5050774;28;20386;-57
2022/04/03 09:42:30;;;;;;;4.30;2.15;;;14.80;68.80;;;;;;5050500;28;20056;-57
2022/04/03 09:44:55;;;;;;;2.60;1.58;;;15.50;66.90;;;;;;5050267;28;20552;-57
2022/04/03 09:47:27;;;;;;;4.72;1.77;;;15.90;65.20;;;;;;5050359;28;20033;-57
2022/04/03 09:50:03;;;;;;;3.13;1.80;;;14.70;63.80;;;;;;5050481;28;20049;-57
2022/04/03 09:52:35;;;;;;;2.63;2.17;;;14.00;64.70;;;;;;5050699;28;20037;-59
2022/04/03 09:55:06;;;;;;;;;;;12.60;68.60;;;;;;5052104;28;20033;-58
2022/04/03 09:57:32;;;;;;;3.80;2.20;;;11.70;70.70;;;;;;5053300;28;19966;-57
2022/04/03 09:59:58;;;;;;;2.35;1.80;;;11.00;73.60;;;;;;5052120;28;20025;-56
2022/04/03 10:02:24;;;;;;;2.38;1.60;;;11.50;72.40;;;;;;5052291;28;20024;-57
2022/04/03 10:04:51;;;;;;;1.98;1.25;;;12.20;68.80;;;;;;5048902;28;20033;-58
2022/04/03 10:07:17;;;;;;;2.58;1.50;;;12.40;68.90;;;;;;5050173;28;20490;-58
2022/04/03 10:09:48;;;;;;;4.97;1.92;;;13.50;67.50;;;;;;5049782;28;20029;-59
2022/04/03 10:12:21;;;;;;;4.70;1.70;;;14.90;65.00;;;;;;5049862;28;20044;-60
2022/04/03 10:14:51;;;;;;;3.50;1.60;;;14.90;63.50;;;;;;5050118;28;20107;-57
2022/04/03 10:17:19;;;;;;;2.05;1.30;;;14.80;62.20;;;;;;5049749;28;20417;-57
2022/04/03 10:19:45;;;;;;;2.35;1.50;;;14.60;60.60;;;;;;5050055;28;20028;-57
2022/04/03 10:22:19;;;;;;;4.57;1.70;;;15.20;61.20;;;;;;5049669;28;20025;-57
2022/04/03 10:24:50;;;;;;;5.07;1.60;;;14.40;61.30;;;;;;5049977;28;20112;-57
2022/04/03 10:27:19;;;;;;;6.30;2.60;;;14.70;61.20;;;;;;5049491;28;20029;-57
2022/04/03 10:29:48;;;;;;;2.58;1.40;;;15.10;60.90;;;;;;5049809;28;20498;-57
2022/04/03 10:32:28;;;;;;;3.20;1.40;;;15.20;59.10;;;;;;5049738;28;20765;-56
2022/04/03 10:34:59;;;;;;;2.17;1.45;;;15.80;58.50;;;;;;5049644;28;20425;-56
2022/04/03 10:37:37;;;;;;;3.05;1.38;;;15.00;57.70;;;;;;5049378;28;20036;-57
2022/04/03 10:40:17;;;;;;;3.50;1.10;;;14.90;58.80;;;;;;5050150;28;20029;-57
2022/04/03 10:42:48;;;;;;;3.55;1.35;;;15.20;57.10;;;;;;5049650;28;20104;-57
2022/04/03 10:45:14;;;;;;;2.95;1.27;;;15.60;56.90;;;;;;5049953;28;20025;-59
2022/04/03 10:47:43;;;;;;;3.38;1.10;;;16.10;56.50;;;;;;5051242;28;20029;-58
2022/04/03 10:50:10;;;;;;;1.83;1.25;;;16.40;54.70;;;;;;5053658;28;20107;-58
2022/04/03 10:52:42;;;;;;;2.40;1.42;;;16.70;55.30;;;;;;5053356;28;20394;-58
2022/04/03 10:55:19;;;;;;;2.92;1.63;;;16.70;54.40;;;;;;5053183;28;20029;-58
2022/04/03 10:57:50;;;;;;;3.60;1.15;;;16.40;56.50;;;;;;5069010;28;20036;-58
2022/04/03 11:00:16;;;;;;;3.50;1.40;;;16.80;56.60;;;;;;5054302;28;20074;-59
2022/04/03 11:02:52;;;;;;;2.38;1.25;;;16.20;56.30;;;;;;5053082;28;20056;-59
2022/04/03 11:05:21;;;;;;;2.42;1.40;;;16.00;56.70;;;;;;5053043;28;20021;-59
2022/04/03 11:07:47;;;;;;;2.78;1.48;;;15.90;56.70;;;;;;5053173;28;20671;-58
2022/04/03 11:10:13;;;;;;;2.75;1.33;;;15.30;56.80;;;;;;5053132;28;20057;-58
2022/04/03 11:12:54;;;;;;;2.80;1.30;;;14.40;59.40;;;;;;5053148;28;20029;-58
2022/04/03 11:15:23;;;;;;;2.83;1.35;;;15.40;58.10;;;;;;5053145;28;20033;-58
2022/04/03 11:17:52;;;;;;;2.60;1.50;;;16.10;57.20;;;;;;5053844;28;20460;-58
2022/04/03 11:20:31;;;;;;;1.95;1.10;;;16.70;56.10;;;;;;5053353;28;20032;-58
2022/04/03 11:22:58;;;;;;;3.75;1.00;;;17.00;54.70;;;;;;5052687;28;20092;-58
2022/04/03 11:25:24;;;;;;;2.17;1.10;;;15.50;54.50;;;;;;5052695;28;20017;-57
2022/04/03 11:27:50;;;;;;;2.45;0.95;;;15.80;55.60;;;;;;5052467;28;20443;-57
2022/04/03 11:30:18;;;;;;;2.55;1.00;;;16.30;55.50;;;;;;5052871;28;20090;-57
2022/04/03 11:32:46;;;;;;;1.92;0.90;;;17.40;53.90;;;;;;5051219;28;20021;-57
2022/04/03 11:35:12;;;;;;;2.55;1.10;;;17.70;52.30;;;;;;5052437;28;20021;-58
2022/04/03 11:37:43;;;;;;;3.35;1.00;;;17.50;52.10;;;;;;5052248;28;20486;-59
2022/04/03 11:40:09;;;;;;;2.90;1.13;;;18.10;51.90;;;;;;5052617;28;20549;-58
2022/04/03 11:42:35;;;;;;;2.88;1.00;;;18.50;51.30;;;;;;5052427;28;20386;-58
2022/04/03 11:45:07;;;;;;;1.92;0.93;;;19.50;50.50;;;;;;5052547;28;20055;-58
2022/04/03 11:47:33;;;;;;;2.85;1.58;;;18.90;50.60;;;;;;5052542;28;20028;-58
2022/04/03 11:50:13;;;;;;;2.72;1.50;;;17.30;52.80;;;;;;5051901;28;20502;-57
2022/04/03 11:52:39;;;;;;;3.42;1.92;;;17.20;54.60;;;;;;5067783;28;20093;-58
2022/04/03 11:55:10;;;;;;;3.53;1.83;;;15.60;57.00;;;;;;5051933;28;20044;-58
2022/04/03 11:57:36;;;;;;;4.53;1.80;;;14.50;59.00;;;;;;5052138;28;20017;-58
2022/04/03 12:00:02;;;;;;;2.65;1.42;;;14.00;59.70;;;;;;5051148;28;20098;-58
2022/04/03 12:02:28;;;;;;;2.65;1.70;;;13.60;61.30;;;;;;5051901;28;20033;-58
2022/04/03 12:04:56;;;;;;;6.70;1.50;;;13.20;62.70;;;;;;5052488;28;20382;-58
2022/04/03 12:07:22;;;;;;;7.75;2.55;;;13.20;62.70;;;;;;5052436;28;20122;-58
2022/04/03 12:09:47;;;;;;;7.97;2.80;;;13.20;62.90;;;;;;5052302;28;20494;-57
2022/04/03 12:12:13;;;;;;;3.08;1.88;;;12.90;62.60;;;;;;5052736;28;20025;-58
2022/04/03 12:14:44;;;;;;;5.53;1.30;;;12.60;62.30;;;;;;5051235;28;20029;-58
2022/04/03 12:17:11;;;;;;;1.73;1.10;;;12.50;61.90;;;;;;5049087;28;20140;-57
2022/04/03 12:19:44;;;;;;;2.35;1.10;;;12.50;62.20;;;;;;5052534;28;20026;-58
2022/04/03 12:22:12;;;;;;;3.00;1.20;;;12.40;62.30;;;;;;5051920;28;20123;-58
2022/04/03 12:24:39;;;;;;;3.08;1.05;;;12.10;62.70;;;;;;5051083;28;20029;-57
2022/04/03 12:27:16;;;;;;;2.00;1.15;;;11.90;63.20;;;;;;5051676;28;20044;-57
2022/04/03 12:29:47;;;;;;;5.28;1.65;;;11.90;63.40;;;;;;5052563;28;20040;-58
2022/04/03 12:32:15;;;;;;;1.35;0.90;;;12.30;64.00;;;;;;5052274;28;20031;-61
2022/04/03 12:34:43;;;;;;;2.47;1.20;;;12.40;62.70;;;;;;5051612;28;20532;-57
2022/04/03 12:37:10;;;;;;;2.35;0.90;;;12.00;63.90;;;;;;5051523;28;20517;-57
2022/04/03 12:39:48;;;;;;;4.03;1.05;;;11.80;64.40;;;;;;5051745;28;20017;-58
2022/04/03 12:42:39;;;;;;;2.65;1.10;;;12.20;64.00;;;;;;5052253;28;20021;-58
2022/04/03 12:45:22;;;;;;;3.33;1.00;;;12.30;63.70;;;;;;5050798;28;20025;-57
2022/04/03 12:47:58;;;;;;;;;;;12.40;63.40;;;;;;5068417;28;20033;-57
2022/04/03 12:50:25;;;;;;;2.58;1.40;;;12.10;63.50;;;;;;5051552;28;19978;-58
2022/04/03 12:52:53;;;;;;;1.85;1.10;;;11.70;65.00;;;;;;5051107;28;20036;-58
2022/04/03 12:55:24;;;;;;;5.65;1.30;;;11.40;65.20;;;;;;5051391;28;20037;-57